YZR weather

Chris Hadfield Airport
Sarnia, Ontario, Canada

Public forecast

Using degrees Celsius for public forecast. Weather courtesy of forecast.io.

Current aviation weather report (METAR) for Chris Hadfield Airport

Retrieved 2019/12/14 15:36 UTC (0 seconds ago):

CYZR 141536Z AUTO 35008KT 4SM -RA BR BKN011 BKN026 OVC049 03/02 A2958 RMK RVR MISG SLP023

Aviation forecast (TAF) for Chris Hadfield Airport

Retrieved 2019/12/14 14:48 UTC (31 minutes ago):

TAF TAF CYZR 141347Z 1414/1502 36010KT 6SM BR SCT015 OVC025 TEMPO 1414/1417 21/2SM -SHRA BR OVC015 FM141700 33010G20KT 5SM -RASN BR OVC020 FM142000 32010G20KT P6SM BKN010 RMK FCST BASED ON AUTO OBS NXT FCST BY 142000Z